createdAt,value
2019-01-30T00:01:01.322Z,14.47
2019-01-30T00:04:08.948Z,8.90
2019-01-30T00:07:16.786Z,9.73
2019-01-30T00:10:23.527Z,14.13
2019-01-30T00:13:30.081Z,13.30
2019-01-30T00:16:37.285Z,13.37
2019-01-30T00:19:45.373Z,12.60
2019-01-30T00:22:51.976Z,6.57
2019-01-30T00:25:58.582Z,11.93
2019-01-30T00:29:05.761Z,6.70
2019-01-30T00:32:15.057Z,14.37
2019-01-30T00:35:20.956Z,13.83
2019-01-30T00:38:27.496Z,14.57
2019-01-30T00:41:34.581Z,12.93
2019-01-30T00:44:41.212Z,10.43
2019-01-30T00:47:48.037Z,8.20
2019-01-30T00:50:54.580Z,6.53
2019-01-30T00:54:01.043Z,7.83
2019-01-30T00:57:07.418Z,11.33
2019-01-30T01:00:16.929Z,14.30
2019-01-30T01:03:23.581Z,14.73
2019-01-30T01:06:29.868Z,7.00
2019-01-30T01:09:36.415Z,11.30
2019-01-30T01:12:43.641Z,9.00
2019-01-30T01:15:50.431Z,5.17
2019-01-30T01:18:57.065Z,3.67
2019-01-30T01:22:03.437Z,3.37
2019-01-30T01:25:12.573Z,9.53
2019-01-30T01:28:19.122Z,3.53
2019-01-30T01:31:26.611Z,4.07
2019-01-30T01:34:33.131Z,4.20
2019-01-30T01:37:39.505Z,9.03
2019-01-30T01:40:46.249Z,3.87
2019-01-30T01:43:53.054Z,4.50
2019-01-30T01:46:59.720Z,5.80
2019-01-30T01:50:07.997Z,4.87
2019-01-30T01:53:14.873Z,11.23
2019-01-30T01:56:21.687Z,4.57
2019-01-30T01:59:28.430Z,6.40
2019-01-30T02:02:35.071Z,6.17
2019-01-30T02:05:41.503Z,10.23
2019-01-30T02:08:48.277Z,6.87
2019-01-30T02:11:54.994Z,3.73
2019-01-30T02:15:01.370Z,3.20
2019-01-30T02:18:08.601Z,2.77
2019-01-30T02:21:15.542Z,3.40
2019-01-30T02:24:22.078Z,3.13
2019-01-30T02:27:28.566Z,5.20
2019-01-30T02:30:46.569Z,4.37
2019-01-30T02:33:43.933Z,5.07
2019-01-30T02:36:59.629Z,3.60
2019-01-30T02:40:07.875Z,4.13
2019-01-30T02:43:14.542Z,3.33
2019-01-30T02:46:21.238Z,3.80
2019-01-30T02:49:27.678Z,4.83
2019-01-30T02:52:34.409Z,3.73
2019-01-30T02:55:41.219Z,8.77
2019-01-30T02:58:47.807Z,4.23
2019-01-30T03:02:11.331Z,5.93
2019-01-30T03:05:18.310Z,6.03
2019-01-30T03:08:25.186Z,4.67
2019-01-30T03:11:32.161Z,7.27
2019-01-30T03:14:40.598Z,7.17
2019-01-30T03:17:47.436Z,4.50
2019-01-30T03:20:54.166Z,4.10
2019-01-30T03:24:00.988Z,4.60
2019-01-30T03:27:07.602Z,5.10
2019-01-30T03:30:21.915Z,3.50
2019-01-30T03:33:28.386Z,3.33
2019-01-30T03:36:36.423Z,2.50
2019-01-30T03:39:43.344Z,5.57
2019-01-30T03:42:50.122Z,4.27
2019-01-30T03:45:56.534Z,5.07
2019-01-30T03:49:03.449Z,3.60
2019-01-30T03:52:09.948Z,5.40
2019-01-30T03:55:18.375Z,6.30
2019-01-30T03:58:25.021Z,13.50
2019-01-30T04:01:31.471Z,4.70
2019-01-30T04:04:38.295Z,5.43
2019-01-30T04:07:44.779Z,5.67
2019-01-30T04:10:51.039Z,3.50
2019-01-30T04:14:00.570Z,11.23
2019-01-30T04:20:38.476Z,8.07
2019-01-30T04:23:45.382Z,4.20
2019-01-30T04:26:51.786Z,5.63
2019-01-30T04:29:58.202Z,7.13
2019-01-30T04:33:04.755Z,7.40
2019-01-30T04:36:11.688Z,5.60
2019-01-30T04:39:18.595Z,8.23
2019-01-30T04:42:26.765Z,9.23
2019-01-30T04:45:33.240Z,7.30
2019-01-30T04:48:40.049Z,7.17
2019-01-30T04:51:51.100Z,6.97
2019-01-30T04:54:58.161Z,4.47
2019-01-30T04:58:04.904Z,3.80
2019-01-30T05:01:11.917Z,3.77
2019-01-30T05:04:18.323Z,7.30
2019-01-30T05:07:24.802Z,21.57
2019-01-30T05:10:34.052Z,24.47
2019-01-30T05:13:40.606Z,37.80
2019-01-30T05:16:47.464Z,33.40
2019-01-30T05:19:54.150Z,25.00
2019-01-30T05:23:03.484Z,27.03
2019-01-30T05:26:10.431Z,49.73
2019-01-30T05:29:17.102Z,53.43
2019-01-30T05:32:23.720Z,38.23
2019-01-30T05:35:30.155Z,28.40
2019-01-30T05:38:36.677Z,24.33
2019-01-30T05:41:43.391Z,15.40
2019-01-30T05:44:49.881Z,16.57
2019-01-30T05:47:56.486Z,10.90
2019-01-30T05:51:02.819Z,11.83
2019-01-30T05:54:09.498Z,9.60
2019-01-30T05:57:16.007Z,12.47
2019-01-30T06:00:27.206Z,10.13
2019-01-30T06:03:33.863Z,10.20
2019-01-30T06:06:40.977Z,10.80
2019-01-30T06:09:48.187Z,10.60
2019-01-30T06:12:55.586Z,8.77
2019-01-30T06:16:02.320Z,13.70
2019-01-30T06:19:08.814Z,5.67
2019-01-30T06:22:15.547Z,6.53
2019-01-30T06:25:22.377Z,8.50
2019-01-30T06:28:29.357Z,10.17
2019-01-30T06:31:38.590Z,7.60
2019-01-30T06:34:45.812Z,6.83
2019-01-30T06:37:52.655Z,7.03
2019-01-30T06:40:59.149Z,7.53
2019-01-30T06:44:05.839Z,6.40
2019-01-30T06:47:12.553Z,4.23
2019-01-30T06:50:19.351Z,5.20
2019-01-30T06:53:26.082Z,5.03
2019-01-30T06:56:32.892Z,6.50
2019-01-30T06:59:40.338Z,7.13
2019-01-30T07:02:47.217Z,3.77
2019-01-30T07:05:54.061Z,5.50
2019-01-30T07:09:00.676Z,7.37
2019-01-30T07:12:07.433Z,8.13
2019-01-30T07:15:14.630Z,9.00
2019-01-30T07:18:21.500Z,16.70
2019-01-30T07:21:29.066Z,13.67
2019-01-30T07:24:36.510Z,9.97
2019-01-30T07:27:43.586Z,15.23
2019-01-30T07:30:50.766Z,9.70
2019-01-30T07:33:57.440Z,17.60
2019-01-30T07:37:04.337Z,13.67
2019-01-30T07:40:11.279Z,5.50
2019-01-30T07:43:19.117Z,4.53
2019-01-30T07:46:25.968Z,7.50
2019-01-30T07:49:32.679Z,6.37
2019-01-30T07:52:39.919Z,4.00
2019-01-30T07:55:47.050Z,70.47
2019-01-30T07:58:53.691Z,63.17
2019-01-30T08:02:01.335Z,26.77
2019-01-30T08:05:08.619Z,25.90
2019-01-30T08:08:15.269Z,14.90
2019-01-30T08:11:22.089Z,23.30
2019-01-30T08:14:28.608Z,24.10
2019-01-30T08:17:35.355Z,26.00
2019-01-30T08:20:42.083Z,28.50
2019-01-30T08:23:49.378Z,24.80
2019-01-30T08:26:56.600Z,22.20
2019-01-30T08:30:03.306Z,25.87
2019-01-30T08:33:10.097Z,22.23
2019-01-30T08:36:16.844Z,25.27
2019-01-30T08:39:23.451Z,10.13
2019-01-30T08:42:30.308Z,10.37
2019-01-30T08:45:36.879Z,9.97
2019-01-30T08:48:43.596Z,7.27
2019-01-30T08:51:50.781Z,8.80
2019-01-30T08:54:57.252Z,6.83
2019-01-30T08:58:04.065Z,7.97
2019-01-30T09:01:11.276Z,6.97
2019-01-30T09:04:17.960Z,4.10
2019-01-30T09:07:24.177Z,8.90
2019-01-30T09:10:31.267Z,3.83
2019-01-30T09:13:39.024Z,10.73
2019-01-30T09:16:45.814Z,14.27
2019-01-30T09:19:52.355Z,18.97
2019-01-30T09:22:59.085Z,17.90
2019-01-30T09:26:06.015Z,14.53
2019-01-30T09:29:12.886Z,11.27
2019-01-30T09:32:19.647Z,7.93
2019-01-30T09:35:26.849Z,5.37
2019-01-30T09:38:33.780Z,4.03
2019-01-30T09:41:40.493Z,2.97
2019-01-30T09:44:47.209Z,2.63
2019-01-30T09:47:53.515Z,5.37
2019-01-30T09:51:00.109Z,2.63
2019-01-30T09:54:07.116Z,2.50
2019-01-30T09:57:14.165Z,3.17
2019-01-30T10:00:32.343Z,2.47
2019-01-30T10:03:39.199Z,2.13
2019-01-30T10:06:45.990Z,2.00
2019-01-30T10:09:52.822Z,1.87
2019-01-30T10:12:59.255Z,4.13
2019-01-30T10:16:06.142Z,2.50
2019-01-30T10:19:12.522Z,6.47
2019-01-30T10:22:18.910Z,5.30
2019-01-30T10:25:25.614Z,4.97
2019-01-30T10:28:32.640Z,2.63
2019-01-30T10:31:39.483Z,2.83
2019-01-30T10:34:46.501Z,1.87
2019-01-30T10:37:52.840Z,1.63
2019-01-30T10:41:01.837Z,2.83
2019-01-30T10:44:09.057Z,2.53
2019-01-30T10:47:18.829Z,3.13
2019-01-30T10:50:27.315Z,3.40
2019-01-30T10:53:34.906Z,2.63
2019-01-30T10:56:41.591Z,2.60
2019-01-30T10:59:48.649Z,2.57
2019-01-30T11:02:55.429Z,2.93
2019-01-30T11:06:02.109Z,3.07
2019-01-30T11:09:11.235Z,1.93
2019-01-30T11:12:18.521Z,3.10
2019-01-30T11:15:27.526Z,4.20
2019-01-30T11:18:34.423Z,5.83
2019-01-30T11:21:41.425Z,2.00
2019-01-30T11:24:48.045Z,2.10
2019-01-30T11:27:54.573Z,2.20
2019-01-30T11:31:01.362Z,3.33
2019-01-30T11:34:08.113Z,5.60
2019-01-30T11:37:14.830Z,9.90
2019-01-30T11:40:21.766Z,2.80
2019-01-30T11:43:31.165Z,9.57
2019-01-30T11:46:38.489Z,9.10
2019-01-30T11:49:45.025Z,19.47
2019-01-30T11:52:51.597Z,10.40
2019-01-30T11:55:58.266Z,7.63
2019-01-30T11:59:05.469Z,5.63
2019-01-30T12:02:12.119Z,5.90
2019-01-30T12:05:19.079Z,12.43
2019-01-30T12:08:25.601Z,11.40
2019-01-30T12:11:32.851Z,17.40
2019-01-30T12:14:39.441Z,5.40
2019-01-30T12:17:46.470Z,2.63
2019-01-30T12:20:53.220Z,2.93
2019-01-30T12:24:00.246Z,10.30
2019-01-30T12:27:07.164Z,2.43
2019-01-30T12:30:16.332Z,2.60
2019-01-30T12:33:22.994Z,8.20
2019-01-30T12:36:29.943Z,3.27
2019-01-30T12:39:36.742Z,4.50
2019-01-30T12:42:44.235Z,2.40
2019-01-30T12:45:50.627Z,2.20
2019-01-30T12:48:57.349Z,2.50
2019-01-30T12:52:03.911Z,2.90
2019-01-30T12:55:10.665Z,2.27
2019-01-30T12:58:17.150Z,2.30
2019-01-30T13:01:23.888Z,3.00
2019-01-30T13:04:38.687Z,4.97
2019-01-30T13:07:38.596Z,2.60
2019-01-30T13:10:45.497Z,2.83
2019-01-30T13:13:52.786Z,2.90
2019-01-30T13:16:59.240Z,4.00
2019-01-30T13:20:08.171Z,5.70
2019-01-30T13:23:14.672Z,4.23
2019-01-30T13:26:20.908Z,5.80
2019-01-30T13:29:27.747Z,2.63
2019-01-30T13:32:34.787Z,3.60
2019-01-30T13:35:43.062Z,6.83
2019-01-30T13:38:49.874Z,3.30
2019-01-30T13:41:57.448Z,3.23
2019-01-30T13:45:05.419Z,3.50
2019-01-30T13:48:16.520Z,3.93
2019-01-30T13:51:23.505Z,3.93
2019-01-30T13:54:30.270Z,3.30
2019-01-30T13:57:36.927Z,3.33
2019-01-30T14:00:43.704Z,7.50
2019-01-30T14:03:50.309Z,17.83
2019-01-30T14:06:57.105Z,18.33
2019-01-30T14:10:04.076Z,6.50
2019-01-30T14:13:12.373Z,7.00
2019-01-30T14:16:18.741Z,4.30
2019-01-30T14:19:25.194Z,4.43
2019-01-30T14:22:31.988Z,3.70
2019-01-30T14:25:39.045Z,6.60
2019-01-30T14:28:45.835Z,4.27
2019-01-30T14:31:53.167Z,3.90
2019-01-30T14:35:10.157Z,5.70
2019-01-30T14:38:09.089Z,4.27
2019-01-30T14:41:16.203Z,3.70
2019-01-30T14:44:23.930Z,3.87
2019-01-30T14:47:31.340Z,4.67
2019-01-30T14:50:38.685Z,3.87
2019-01-30T14:53:45.681Z,6.00
2019-01-30T14:56:53.207Z,5.20
2019-01-30T14:59:59.904Z,4.00
2019-01-30T15:03:07.223Z,4.30
2019-01-30T15:06:14.461Z,3.70
2019-01-30T15:09:21.384Z,3.73
2019-01-30T15:12:29.185Z,5.13
2019-01-30T15:15:37.402Z,4.80
2019-01-30T15:18:46.407Z,5.03
2019-01-30T15:21:56.947Z,5.37
2019-01-30T15:25:03.664Z,10.40
2019-01-30T15:28:11.276Z,43.43
2019-01-30T15:31:18.303Z,14.47
2019-01-30T15:34:26.043Z,48.63
2019-01-30T15:37:32.713Z,23.47
2019-01-30T15:40:39.648Z,17.30
2019-01-30T15:43:49.393Z,6.90
2019-01-30T15:46:56.135Z,4.63
2019-01-30T15:50:03.146Z,4.47
2019-01-30T15:53:13.429Z,7.67
2019-01-30T15:56:19.945Z,58.27
2019-01-30T15:59:26.825Z,31.43
2019-01-30T16:02:33.616Z,9.70
2019-01-30T16:05:44.949Z,37.57
2019-01-30T16:08:49.099Z,6.20
2019-01-30T16:11:56.442Z,3.83
2019-01-30T16:15:02.803Z,4.37
2019-01-30T16:18:09.975Z,5.90
2019-01-30T16:21:17.025Z,4.43
2019-01-30T16:24:23.408Z,4.50
2019-01-30T16:27:30.627Z,5.53
2019-01-30T16:30:37.047Z,5.10
2019-01-30T16:33:43.935Z,4.17
2019-01-30T16:36:50.323Z,4.67
2019-01-30T16:39:57.706Z,4.23
2019-01-30T16:43:05.193Z,4.53
2019-01-30T16:46:12.049Z,6.07
2019-01-30T16:49:18.403Z,3.73
2019-01-30T16:52:25.100Z,6.40
2019-01-30T16:55:32.260Z,4.03
2019-01-30T16:58:38.746Z,4.00
2019-01-30T17:01:45.359Z,3.30
2019-01-30T17:04:51.780Z,3.37
2019-01-30T17:07:58.166Z,3.60
2019-01-30T17:11:04.893Z,6.00
2019-01-30T17:14:12.053Z,3.30
2019-01-30T17:17:19.103Z,4.03
2019-01-30T17:20:28.187Z,4.47
2019-01-30T17:23:35.023Z,8.00
2019-01-30T17:26:41.927Z,3.30
2019-01-30T17:29:48.856Z,3.23
2019-01-30T17:32:55.582Z,3.63
2019-01-30T17:36:01.951Z,2.43
2019-01-30T17:39:10.527Z,2.63
2019-01-30T17:42:17.533Z,2.43
2019-01-30T17:45:24.559Z,2.10
2019-01-30T17:48:31.032Z,1.77
2019-01-30T17:51:38.687Z,1.57
2019-01-30T17:54:45.607Z,1.57
2019-01-30T17:57:52.767Z,1.00
2019-01-30T18:01:01.765Z,1.60
2019-01-30T18:04:08.830Z,1.20
2019-01-30T18:07:15.740Z,0.90
2019-01-30T18:10:22.450Z,0.67
2019-01-30T18:13:30.203Z,0.87
2019-01-30T18:16:38.233Z,0.70
2019-01-30T18:19:44.912Z,0.77
2019-01-30T18:22:51.654Z,0.90
2019-01-30T18:26:01.219Z,0.80
2019-01-30T18:29:07.331Z,1.37
2019-01-30T18:32:15.073Z,0.77
2019-01-30T18:35:21.523Z,0.80
2019-01-30T18:38:28.375Z,0.87
2019-01-30T18:41:36.423Z,0.90
2019-01-30T18:44:43.727Z,2.70
2019-01-30T18:47:50.368Z,1.00
2019-01-30T18:50:57.416Z,0.97
2019-01-30T18:54:04.060Z,1.17
2019-01-30T18:57:10.526Z,2.00
2019-01-30T19:00:24.528Z,1.60
2019-01-30T19:03:31.170Z,0.87
2019-01-30T19:06:38.477Z,1.10
2019-01-30T19:09:48.000Z,1.10
2019-01-30T19:12:55.047Z,0.80
2019-01-30T19:16:01.715Z,2.83
2019-01-30T19:19:09.259Z,1.10
2019-01-30T19:22:16.552Z,0.87
2019-01-30T19:25:23.548Z,0.90
2019-01-30T19:28:31.185Z,1.27
2019-01-30T19:31:40.930Z,0.90
2019-01-30T19:34:48.308Z,1.10
2019-01-30T19:37:56.467Z,1.27
2019-01-30T19:41:03.501Z,0.90
2019-01-30T19:44:11.375Z,1.37
2019-01-30T19:47:18.115Z,1.33
2019-01-30T19:50:26.133Z,1.47
2019-01-30T19:53:33.149Z,1.70
2019-01-30T19:56:40.271Z,1.90
2019-01-30T19:59:47.146Z,1.40
2019-01-30T20:02:53.748Z,1.50
2019-01-30T20:06:00.329Z,2.53
2019-01-30T20:09:13.551Z,1.57
2019-01-30T20:12:23.828Z,1.70
2019-01-30T20:15:31.321Z,1.43
2019-01-30T20:18:38.328Z,1.83
2019-01-30T20:21:44.907Z,2.77
2019-01-30T20:24:51.680Z,4.50
2019-01-30T20:27:58.569Z,1.30
2019-01-30T20:31:05.503Z,1.33
2019-01-30T20:34:12.351Z,1.70
2019-01-30T20:37:25.864Z,1.10
2019-01-30T20:40:28.900Z,1.30
2019-01-30T20:43:35.692Z,1.40
2019-01-30T20:46:42.529Z,1.23
2019-01-30T20:49:50.738Z,2.10
2019-01-30T20:52:58.783Z,7.20
2019-01-30T20:56:05.877Z,2.37
2019-01-30T20:59:14.326Z,1.93
2019-01-30T21:02:20.929Z,1.53
2019-01-30T21:05:27.572Z,1.60
2019-01-30T21:08:34.211Z,2.87
2019-01-30T21:11:40.721Z,1.87
2019-01-30T21:14:49.172Z,1.20
2019-01-30T21:17:56.571Z,8.73
2019-01-30T21:21:04.186Z,2.40
2019-01-30T21:24:13.668Z,3.50
2019-01-30T21:27:20.893Z,1.17
2019-01-30T21:30:30.073Z,1.10
2019-01-30T21:33:36.907Z,1.27
2019-01-30T21:36:43.517Z,1.20
2019-01-30T21:39:50.559Z,1.80
2019-01-30T21:42:57.990Z,1.27
2019-01-30T21:46:05.345Z,1.50
2019-01-30T21:49:13.297Z,1.37
2019-01-30T21:52:20.412Z,1.50
2019-01-30T21:55:27.532Z,1.40
2019-01-30T21:58:34.065Z,1.20
2019-01-30T22:01:40.866Z,1.10
2019-01-30T22:04:47.232Z,1.70
2019-01-30T22:08:00.827Z,1.20
2019-01-30T22:11:02.754Z,2.00
2019-01-30T22:14:09.261Z,0.87
2019-01-30T22:17:16.214Z,1.40
2019-01-30T22:20:24.468Z,1.30
2019-01-30T22:23:30.982Z,3.37
2019-01-30T22:26:38.010Z,1.20
2019-01-30T22:29:45.075Z,1.13
2019-01-30T22:32:51.826Z,1.30
2019-01-30T22:35:58.584Z,1.57
2019-01-30T22:39:07.900Z,1.80
2019-01-30T22:42:15.348Z,1.67
2019-01-30T22:45:22.387Z,1.43
2019-01-30T22:48:29.216Z,1.40
2019-01-30T22:51:39.500Z,1.30
2019-01-30T22:54:47.830Z,1.43
2019-01-30T22:57:54.839Z,1.53
2019-01-30T23:01:26.245Z,1.03
2019-01-30T23:05:09.148Z,1.37
2019-01-30T23:08:56.973Z,1.70
2019-01-30T23:12:39.780Z,1.60
2019-01-30T23:16:28.681Z,1.80
2019-01-30T23:20:02.116Z,1.20
2019-01-30T23:24:01.616Z,1.60
2019-01-30T23:27:33.492Z,1.60
2019-01-30T23:31:12.413Z,2.07
2019-01-30T23:34:32.346Z,1.33
2019-01-30T23:37:54.539Z,1.50
2019-01-30T23:41:37.879Z,1.30
2019-01-30T23:45:00.474Z,1.50
2019-01-30T23:48:52.439Z,1.63
2019-01-30T23:52:57.988Z,1.83
2019-01-30T23:56:46.074Z,1.50
